Aviation Digital Data Service (ADDS)

Output produced by METARs form (0051 UTC 25 July 2017)
found at http://aviationweather.gov/adds/metars/
 
KLAX 242359Z 2500/2606 25010KT P6SM BKN120 
     FM250300 VRB05KT P6SM FEW010 BKN150 
     FM250800 VRB03KT P6SM BKN009 BKN150 
     FM251600 25008KT P6SM SCT012 BKN150 
     FM252000 26012KT P6SM SCT150 
     FM260300 25005KT P6SM FEW010 SCT150